Time;durP1;ratioP1;P1;durP2;ratioP2;P2;SDS_P1;SDS_P2;PMS_P1;PMS_P2;Temp;Humidity;BMP_temperature;BMP_pressure;BME280_temperature;BME280_humidity;BME280_pressure;Samples;Min_cycle;Max_cycle;Signal;HPM_P1;HPM_P2
2022/10/30 00:00:36;;;;;;;24.85;11.45;;;12.30;99.90;;;;;;5014705;28;20036;-77
2022/10/30 00:03:02;;;;;;;27.88;12.68;;;12.10;99.90;;;;;;5014736;28;20026;-77
2022/10/30 00:05:27;;;;;;;21.15;12.77;;;12.10;99.90;;;;;;5014579;28;20397;-77
2022/10/30 00:07:57;;;;;;;52.40;22.88;;;12.20;99.90;;;;;;5014672;28;20029;-77
2022/10/30 00:10:23;;;;;;;111.72;57.50;;;12.10;99.90;;;;;;5014634;28;20109;-77
2022/10/30 00:12:48;;;;;;;178.60;76.93;;;12.20;99.90;;;;;;5014482;28;20113;-77
2022/10/30 00:15:14;;;;;;;154.90;54.28;;;12.00;99.90;;;;;;5014426;28;20034;-77
2022/10/30 00:17:40;;;;;;;93.40;33.80;;;12.10;99.90;;;;;;5014316;28;20124;-76
2022/10/30 00:20:06;;;;;;;45.45;19.73;;;12.00;99.90;;;;;;5014361;28;20026;-77
2022/10/30 00:22:34;;;;;;;27.55;13.20;;;11.90;99.90;;;;;;5014199;28;20109;-77
2022/10/30 00:25:00;;;;;;;26.20;12.05;;;12.10;99.90;;;;;;5014162;28;20480;-77
2022/10/30 00:27:26;;;;;;;24.33;12.32;;;12.00;99.90;;;;;;5014082;28;20496;-77
2022/10/30 00:29:51;;;;;;;30.65;12.27;;;12.10;99.90;;;;;;5014278;28;20018;-77
2022/10/30 00:32:17;;;;;;;22.60;11.77;;;12.10;99.90;;;;;;5014309;28;20026;-77
2022/10/30 00:34:43;;;;;;;22.73;11.65;;;12.20;99.90;;;;;;5014053;28;20025;-77
2022/10/30 00:37:08;;;;;;;24.48;12.98;;;12.10;99.90;;;;;;5013870;28;20026;-78
2022/10/30 00:39:34;;;;;;;25.23;12.85;;;12.10;99.90;;;;;;5014030;28;20030;-77
2022/10/30 00:41:59;;;;;;;23.50;11.98;;;12.10;99.90;;;;;;5013991;28;20026;-77
2022/10/30 00:44:46;;;;;;;25.15;11.85;;;12.10;99.90;;;;;;5013754;28;20033;-77
2022/10/30 00:47:29;;;;;;;21.75;12.07;;;12.10;99.90;;;;;;5013622;28;20093;-77
2022/10/30 00:50:18;;;;;;;25.52;12.07;;;12.10;99.90;;;;;;4994295;28;20019;-77
2022/10/30 00:52:56;;;;;;;26.02;12.43;;;12.10;99.90;;;;;;4993631;28;20030;-77
2022/10/30 00:55:28;;;;;;;22.83;11.48;;;12.20;99.90;;;;;;4994169;28;20126;-77
2022/10/30 00:57:54;;;;;;;21.08;12.43;;;12.20;99.90;;;;;;4994092;28;20057;-76
2022/10/30 01:00:22;;;;;;;25.75;12.85;;;12.20;99.90;;;;;;4994065;28;20019;-77
2022/10/30 01:02:49;;;;;;;24.88;11.30;;;12.00;99.90;;;;;;4993959;28;20018;-77
2022/10/30 01:05:17;;;;;;;19.42;10.25;;;12.00;99.90;;;;;;4993856;28;20496;-77
2022/10/30 01:07:43;;;;;;;27.08;11.73;;;11.90;99.90;;;;;;4993624;28;20592;-78
2022/10/30 01:10:10;;;;;;;25.83;11.52;;;11.90;99.90;;;;;;4993922;28;20041;-77
2022/10/30 01:12:37;;;;;;;28.75;12.95;;;11.90;99.90;;;;;;4993861;28;20014;-77
2022/10/30 01:15:03;;;;;;;23.95;13.07;;;12.00;99.90;;;;;;4993776;28;20030;-77
2022/10/30 01:18:10;;;;;;;27.55;12.38;;;12.00;99.90;;;;;;4993670;28;20049;-77
2022/10/30 01:20:55;;;;;;;23.50;11.13;;;12.10;99.90;;;;;;4987290;28;20041;-77
2022/10/30 01:23:23;;;;;;;20.13;11.70;;;11.90;99.90;;;;;;4993720;28;20031;-77
2022/10/30 01:26:08;;;;;;;21.98;11.27;;;12.10;99.90;;;;;;4993504;28;20038;-77
2022/10/30 01:29:07;;;;;;;21.17;11.07;;;11.90;99.90;;;;;;4993762;28;20036;-77
2022/10/30 01:31:48;;;;;;;23.00;11.43;;;12.00;99.90;;;;;;4993780;28;20034;-77
2022/10/30 01:34:30;;;;;;;18.58;10.98;;;11.80;99.90;;;;;;4993490;28;20034;-77
2022/10/30 01:37:36;;;;;;;24.40;11.05;;;11.80;99.90;;;;;;4993423;28;20022;-77
2022/10/30 01:40:14;;;;;;;22.30;10.80;;;11.70;99.90;;;;;;4951951;28;20035;-77
2022/10/30 01:42:43;;;;;;;24.30;11.50;;;11.70;99.90;;;;;;4988267;28;20499;-77
2022/10/30 01:45:22;;;;;;;24.08;11.18;;;11.70;99.90;;;;;;4993130;28;20427;-77
2022/10/30 01:48:28;;;;;;;20.35;10.73;;;11.70;99.90;;;;;;4992984;28;20579;-77
2022/10/30 01:51:00;;;;;;;22.98;11.45;;;11.70;99.90;;;;;;4992693;28;20039;-76
2022/10/30 01:53:47;;;;;;;22.20;11.45;;;11.60;99.90;;;;;;4993142;28;20050;-76
2022/10/30 01:56:19;;;;;;;27.30;11.60;;;11.70;99.90;;;;;;4993153;28;20097;-76
2022/10/30 01:58:54;;;;;;;27.50;11.32;;;11.70;99.90;;;;;;5001053;28;20085;-77
2022/10/30 02:01:20;;;;;;;21.85;11.18;;;11.70;99.90;;;;;;5012779;28;20025;-77
2022/10/30 02:03:46;;;;;;;24.42;11.55;;;11.80;99.90;;;;;;5012171;28;20507;-77
2022/10/30 02:06:12;;;;;;;21.45;11.18;;;11.70;99.90;;;;;;5011720;28;20041;-77
2022/10/30 02:08:38;;;;;;;23.63;11.32;;;11.60;99.90;;;;;;5012559;28;20022;-77
2022/10/30 02:11:04;;;;;;;24.45;12.30;;;11.50;99.90;;;;;;5012486;28;20050;-77
2022/10/30 02:13:31;;;;;;;28.38;11.43;;;11.60;99.90;;;;;;5012547;28;20076;-77
2022/10/30 02:15:57;;;;;;;22.00;11.27;;;11.60;99.90;;;;;;5012465;28;20057;-77
2022/10/30 02:18:23;;;;;;;25.83;11.65;;;11.50;99.90;;;;;;5012454;28;20010;-77
2022/10/30 02:20:49;;;;;;;20.35;10.73;;;11.70;99.90;;;;;;5012580;28;20068;-76
2022/10/30 02:23:17;;;;;;;21.42;11.25;;;11.70;99.90;;;;;;5012336;28;20022;-77
2022/10/30 02:25:44;;;;;;;28.85;11.95;;;11.60;99.90;;;;;;5012624;28;20121;-77
2022/10/30 02:28:10;;;;;;;22.20;11.45;;;11.70;99.90;;;;;;5012262;28;20026;-77
2022/10/30 02:30:36;;;;;;;27.38;12.18;;;11.60;99.90;;;;;;5012409;28;20026;-77
2022/10/30 02:33:01;;;;;;;22.23;10.77;;;11.50;99.90;;;;;;5012402;28;20036;-77
2022/10/30 02:35:28;;;;;;;22.83;11.85;;;11.60;99.90;;;;;;5012357;28;20044;-77
2022/10/30 02:37:54;;;;;;;22.60;11.98;;;11.50;99.90;;;;;;5012301;28;20393;-77
2022/10/30 02:40:20;;;;;;;27.73;11.88;;;11.40;99.90;;;;;;5012092;28;20022;-77
2022/10/30 02:42:51;;;;;;;23.85;11.27;;;11.50;99.90;;;;;;5012258;28;20473;-77
2022/10/30 02:45:17;;;;;;;26.33;11.65;;;11.50;99.90;;;;;;5012175;28;20076;-77
2022/10/30 02:47:42;;;;;;;29.17;12.10;;;11.40;99.90;;;;;;5012024;28;20564;-77
2022/10/30 02:50:08;;;;;;;24.48;12.00;;;11.40;99.90;;;;;;5012124;28;20020;-77
2022/10/30 02:52:34;;;;;;;23.83;11.95;;;11.40;99.90;;;;;;5012189;28;20018;-77
2022/10/30 02:55:00;;;;;;;21.17;11.68;;;11.40;99.90;;;;;;5012177;28;20407;-77
2022/10/30 02:57:25;;;;;;;25.77;12.25;;;11.30;99.90;;;;;;5012236;28;20572;-77
2022/10/30 02:59:51;;;;;;;28.23;12.25;;;11.40;99.90;;;;;;5012048;28;20097;-77
2022/10/30 03:02:17;;;;;;;23.42;11.68;;;11.40;99.90;;;;;;5012033;28;20018;-77
2022/10/30 03:04:43;;;;;;;22.58;11.93;;;11.30;99.90;;;;;;5011892;28;20034;-77
2022/10/30 03:07:08;;;;;;;21.38;11.27;;;11.30;99.90;;;;;;5011964;28;20030;-77
2022/10/30 03:09:34;;;;;;;22.42;11.23;;;11.40;99.90;;;;;;5011889;28;20097;-77
2022/10/30 03:11:59;;;;;;;22.38;11.80;;;11.30;99.90;;;;;;5011887;28;20057;-77
2022/10/30 03:14:25;;;;;;;23.75;11.77;;;11.20;99.90;;;;;;5011884;28;20029;-77
2022/10/30 03:16:51;;;;;;;28.58;12.07;;;11.10;99.90;;;;;;5013421;28;20026;-77
2022/10/30 03:19:18;;;;;;;19.80;11.30;;;11.20;99.90;;;;;;5015506;28;20026;-77
2022/10/30 03:21:44;;;;;;;22.20;11.80;;;11.10;99.90;;;;;;5015526;28;20022;-77
2022/10/30 03:24:10;;;;;;;22.73;12.02;;;11.20;99.90;;;;;;5015382;28;20053;-77
2022/10/30 03:26:35;;;;;;;25.10;11.90;;;11.20;99.90;;;;;;5015464;28;20065;-77
2022/10/30 03:29:01;;;;;;;23.73;11.95;;;11.20;1.00;;;;;;5015321;28;20072;-77
2022/10/30 03:31:29;;;;;;;23.65;12.02;;;11.30;1.00;;;;;;5015274;28;20026;-77
2022/10/30 03:33:54;;;;;;;23.50;13.02;;;11.20;1.00;;;;;;5015435;28;20026;-77
2022/10/30 03:36:20;;;;;;;24.90;12.32;;;11.20;1.00;;;;;;5015346;28;20037;-77
2022/10/30 03:38:46;;;;;;;26.55;12.25;;;11.20;1.00;;;;;;5015202;28;20021;-77
2022/10/30 03:41:11;;;;;;;24.65;11.95;;;11.20;1.00;;;;;;5015023;28;20022;-77
2022/10/30 03:43:37;;;;;;;23.63;12.27;;;11.20;1.00;;;;;;5015157;28;20101;-77
2022/10/30 03:46:03;;;;;;;28.85;12.80;;;11.20;1.00;;;;;;5014986;28;20022;-77
2022/10/30 03:48:29;;;;;;;24.80;12.55;;;11.20;1.00;;;;;;5014833;28;20046;-77
2022/10/30 03:50:56;;;;;;;25.30;12.30;;;11.20;1.00;;;;;;5015102;28;20029;-77
2022/10/30 03:53:25;;;;;;;27.40;12.45;;;11.10;1.00;;;;;;5014848;28;20022;-77
2022/10/30 03:55:51;;;;;;;27.45;13.35;;;11.20;1.00;;;;;;5015101;28;20026;-77
2022/10/30 03:58:17;;;;;;;24.52;12.80;;;11.20;1.00;;;;;;5014952;28;20053;-77
2022/10/30 04:00:43;;;;;;;23.88;11.80;;;11.10;1.00;;;;;;5014657;28;20025;-77
2022/10/30 04:03:09;;;;;;;24.63;12.80;;;11.10;1.00;;;;;;5014699;28;20364;-77
2022/10/30 04:05:36;;;;;;;26.67;12.25;;;11.10;1.00;;;;;;5014537;28;20034;-77
2022/10/30 04:08:06;;;;;;;23.08;12.15;;;11.20;1.00;;;;;;5014725;28;20025;-77
2022/10/30 04:10:32;;;;;;;28.55;12.88;;;11.20;1.00;;;;;;5014603;28;20046;-77
2022/10/30 04:13:04;;;;;;;29.88;13.40;;;11.20;1.00;;;;;;5014628;28;20097;-77
2022/10/30 04:15:29;;;;;;;26.73;13.57;;;11.20;1.00;;;;;;5014440;28;20118;-77
2022/10/30 04:17:55;;;;;;;29.50;12.60;;;11.30;1.00;;;;;;5014463;28;20057;-76
2022/10/30 04:20:23;;;;;;;27.70;12.70;;;11.20;1.00;;;;;;5014289;28;20046;-76
2022/10/30 04:22:54;;;;;;;30.90;13.25;;;11.10;1.00;;;;;;5014501;28;20026;-77
2022/10/30 04:25:19;;;;;;;22.80;12.60;;;11.20;1.00;;;;;;5014267;28;20036;-77
2022/10/30 04:27:45;;;;;;;28.40;13.02;;;11.10;1.00;;;;;;5013487;28;20048;-77
2022/10/30 04:30:12;;;;;;;34.65;14.95;;;11.10;1.00;;;;;;5014118;28;20037;-77
2022/10/30 04:32:48;;;;;;;25.95;12.10;;;11.00;1.00;;;;;;5014317;28;20524;-77
2022/10/30 04:35:15;;;;;;;22.98;11.52;;;11.00;1.00;;;;;;5014121;28;20030;-77
2022/10/30 04:37:41;;;;;;;26.58;12.13;;;11.00;1.00;;;;;;5014091;28;20061;-77
2022/10/30 04:40:07;;;;;;;27.65;11.57;;;11.00;1.00;;;;;;5014035;28;20018;-77
2022/10/30 04:42:33;;;;;;;27.23;12.80;;;11.00;1.00;;;;;;5013915;28;20361;-77
2022/10/30 04:45:01;;;;;;;29.65;13.50;;;11.10;1.00;;;;;;5014223;28;20042;-77
2022/10/30 04:47:27;;;;;;;22.48;11.85;;;11.00;1.00;;;;;;5013858;28;20018;-77
2022/10/30 04:49:53;;;;;;;26.30;12.98;;;11.10;1.00;;;;;;5013936;28;20519;-76
2022/10/30 04:52:19;;;;;;;29.25;13.18;;;11.00;1.00;;;;;;5013758;28;20030;-77
2022/10/30 04:54:45;;;;;;;27.30;13.15;;;11.00;1.00;;;;;;5013794;28;20021;-77
2022/10/30 04:57:10;;;;;;;30.25;13.65;;;11.00;1.00;;;;;;5013698;28;20030;-76
2022/10/30 04:59:36;;;;;;;27.10;13.30;;;11.00;1.00;;;;;;5013771;28;20018;-77
2022/10/30 05:02:02;;;;;;;24.60;12.80;;;11.00;1.00;;;;;;5013697;28;20109;-77
2022/10/30 05:04:27;;;;;;;24.85;12.07;;;11.00;1.00;;;;;;5013617;28;20026;-77
2022/10/30 05:06:53;;;;;;;29.17;13.07;;;11.00;1.00;;;;;;5013533;28;20022;-77
2022/10/30 05:09:18;;;;;;;34.95;13.30;;;11.00;1.00;;;;;;5013551;28;20026;-77
2022/10/30 05:11:44;;;;;;;28.20;12.93;;;11.00;1.00;;;;;;5013390;28;20022;-77
2022/10/30 05:14:09;;;;;;;37.38;14.32;;;10.90;1.00;;;;;;5013653;28;20120;-78
2022/10/30 05:16:35;;;;;;;34.65;14.38;;;11.10;1.00;;;;;;5013566;28;20030;-77
2022/10/30 05:19:01;;;;;;;29.73;14.13;;;11.00;1.00;;;;;;5013314;28;20022;-78
2022/10/30 05:21:26;;;;;;;29.73;13.20;;;11.00;1.00;;;;;;4996469;28;20027;-77
2022/10/30 05:23:52;;;;;;;27.55;13.98;;;11.00;1.00;;;;;;4993761;28;20018;-77
2022/10/30 05:26:17;;;;;;;31.80;14.68;;;11.10;1.00;;;;;;4993541;28;20026;-77
2022/10/30 05:28:43;;;;;;;25.55;13.65;;;11.10;1.00;;;;;;4993462;28;20080;-77
2022/10/30 05:31:09;;;;;;;29.17;12.98;;;11.10;1.00;;;;;;5011196;28;20022;-77
2022/10/30 05:33:34;;;;;;;26.20;12.82;;;11.00;1.00;;;;;;5012829;28;20033;-77
2022/10/30 05:36:00;;;;;;;31.23;12.90;;;10.90;1.00;;;;;;5013073;28;20108;-77
2022/10/30 05:38:25;;;;;;;27.90;12.30;;;10.90;1.00;;;;;;5013001;28;20085;-77
2022/10/30 05:40:51;;;;;;;27.92;13.15;;;10.80;1.00;;;;;;5012695;28;20054;-77
2022/10/30 05:43:16;;;;;;;28.88;12.50;;;10.80;1.00;;;;;;5012984;28;20022;-77
2022/10/30 05:45:42;;;;;;;33.10;13.45;;;10.80;1.00;;;;;;5012936;28;20026;-77
2022/10/30 05:48:08;;;;;;;30.23;13.40;;;10.90;1.00;;;;;;5012520;28;20503;-77
2022/10/30 05:50:34;;;;;;;30.00;12.98;;;10.80;1.00;;;;;;5012890;28;20060;-77
2022/10/30 05:53:03;;;;;;;31.00;12.48;;;10.80;1.00;;;;;;5012751;28;20021;-77
2022/10/30 05:55:29;;;;;;;38.33;13.95;;;10.90;1.00;;;;;;5012803;28;20022;-77
2022/10/30 05:57:59;;;;;;;46.70;14.35;;;10.90;1.00;;;;;;5012621;28;20369;-77
2022/10/30 06:00:27;;;;;;;35.92;14.35;;;10.90;1.00;;;;;;5012835;28;20044;-77
2022/10/30 06:02:59;;;;;;;30.73;13.32;;;10.80;1.00;;;;;;5011385;28;20062;-77
2022/10/30 06:05:25;;;;;;;25.60;13.20;;;10.70;1.00;;;;;;5012709;28;20065;-77
2022/10/30 06:07:54;;;;;;;30.63;13.35;;;10.60;1.00;;;;;;5012673;28;20057;-77
2022/10/30 06:10:20;;;;;;;29.90;13.20;;;10.60;1.00;;;;;;5013038;28;20057;-77
2022/10/30 06:12:52;;;;;;;32.55;14.27;;;10.80;1.00;;;;;;5012669;28;20283;-77
2022/10/30 06:15:18;;;;;;;30.17;13.60;;;10.80;1.00;;;;;;5012757;28;20112;-77
2022/10/30 06:17:43;;;;;;;32.13;14.35;;;10.80;1.00;;;;;;5012487;28;20120;-77
2022/10/30 06:20:09;;;;;;;37.20;15.00;;;10.80;1.00;;;;;;5012392;28;20475;-77
2022/10/30 06:22:35;;;;;;;35.63;14.07;;;10.90;1.00;;;;;;5012316;28;20030;-77
2022/10/30 06:25:01;;;;;;;36.05;14.68;;;10.90;1.00;;;;;;5012562;28;20029;-77
2022/10/30 06:27:26;;;;;;;28.55;12.88;;;11.00;1.00;;;;;;5012464;28;20105;-77
2022/10/30 06:29:53;;;;;;;29.38;13.48;;;10.90;1.00;;;;;;5012494;28;20350;-77
2022/10/30 06:32:19;;;;;;;33.28;13.32;;;10.90;1.00;;;;;;5012755;28;20458;-77
2022/10/30 06:34:45;;;;;;;29.00;13.25;;;10.80;1.00;;;;;;5012524;28;20451;-77
2022/10/30 06:37:11;;;;;;;34.08;14.45;;;10.90;1.00;;;;;;5012531;28;20110;-77
2022/10/30 06:39:36;;;;;;;32.70;14.27;;;10.90;1.00;;;;;;5012458;28;20022;-77
2022/10/30 06:42:02;;;;;;;32.80;13.68;;;10.90;1.00;;;;;;5012382;28;20076;-77
2022/10/30 06:44:27;;;;;;;32.28;13.88;;;10.90;1.00;;;;;;5012312;28;20037;-77
2022/10/30 06:46:53;;;;;;;32.92;13.63;;;10.90;1.00;;;;;;5012320;28;20100;-77
2022/10/30 06:49:19;;;;;;;29.10;13.48;;;11.10;1.00;;;;;;5011965;28;20150;-77
2022/10/30 06:51:46;;;;;;;31.33;13.82;;;11.10;1.00;;;;;;5013574;28;20467;-77
2022/10/30 06:54:11;;;;;;;28.83;14.05;;;11.20;1.00;;;;;;5015913;28;20415;-77
2022/10/30 06:56:37;;;;;;;31.92;13.68;;;11.40;1.00;;;;;;5015941;28;20033;-76
2022/10/30 06:59:02;;;;;;;36.25;14.68;;;11.60;1.00;;;;;;5015909;28;20022;-77
2022/10/30 07:01:28;;;;;;;30.88;15.07;;;11.60;1.00;;;;;;5015961;28;20076;-77
2022/10/30 07:03:53;;;;;;;30.33;14.45;;;11.70;1.00;;;;;;5015870;28;20379;-77
2022/10/30 07:06:19;;;;;;;32.22;14.48;;;11.70;99.90;;;;;;5015857;28;20034;-77
2022/10/30 07:08:45;;;;;;;32.63;14.25;;;11.80;99.90;;;;;;5014592;28;20018;-77
2022/10/30 07:11:11;;;;;;;27.27;13.60;;;11.80;99.90;;;;;;5015898;28;20483;-77
2022/10/30 07:13:37;;;;;;;24.65;13.10;;;11.90;99.90;;;;;;5015752;28;20022;-77
2022/10/30 07:16:02;;;;;;;28.75;13.82;;;12.00;99.90;;;;;;5015676;28;20430;-77
2022/10/30 07:18:28;;;;;;;24.55;13.32;;;12.20;99.90;;;;;;5015505;28;20064;-77
2022/10/30 07:20:55;;;;;;;36.88;13.32;;;12.40;99.90;;;;;;5015273;28;20030;-77
2022/10/30 07:23:21;;;;;;;26.92;13.23;;;12.60;99.90;;;;;;5015113;28;20026;-77
2022/10/30 07:25:46;;;;;;;28.73;12.95;;;12.60;99.90;;;;;;5015458;28;20029;-77
2022/10/30 07:28:12;;;;;;;26.25;14.38;;;12.90;99.90;;;;;;5015390;28;20425;-77
2022/10/30 07:30:37;;;;;;;32.40;14.43;;;13.40;99.90;;;;;;5015363;28;20100;-77
2022/10/30 07:33:05;;;;;;;29.40;15.07;;;14.40;99.90;;;;;;5015292;28;20026;-77
2022/10/30 07:35:33;;;;;;;30.52;14.82;;;15.40;99.90;;;;;;5013731;28;20026;-77
2022/10/30 07:38:03;;;;;;;24.75;14.95;;;16.40;99.90;;;;;;5015101;28;20069;-77
2022/10/30 07:40:29;;;;;;;22.63;14.18;;;17.10;91.20;;;;;;5015127;28;20050;-77
2022/10/30 07:42:56;;;;;;;24.60;13.73;;;17.80;1.00;;;;;;5015344;28;20053;-77
2022/10/30 07:45:22;;;;;;;21.63;13.73;;;18.60;1.00;;;;;;5015028;28;20022;-77
2022/10/30 07:47:47;;;;;;;22.00;13.15;;;19.50;1.00;;;;;;5014721;28;20057;-77
2022/10/30 07:50:13;;;;;;;22.08;12.80;;;20.00;1.00;;;;;;5001814;28;20037;-77
2022/10/30 07:52:39;;;;;;;23.35;13.00;;;20.10;1.00;;;;;;4995866;28;20573;-77
2022/10/30 07:55:05;;;;;;;22.60;12.05;;;20.70;1.00;;;;;;4996020;28;20396;-77
2022/10/30 07:57:37;;;;;;;21.27;11.85;;;21.80;1.00;;;;;;4996202;28;20450;-77
2022/10/30 08:00:05;;;;;;;24.23;11.90;;;22.70;1.00;;;;;;4996002;28;20221;-77
2022/10/30 08:02:31;;;;;;;18.02;11.90;;;23.50;1.00;;;;;;4996086;28;20033;-77
2022/10/30 08:04:56;;;;;;;22.23;11.98;;;24.10;1.00;;;;;;4996229;28;20026;-77
2022/10/30 08:07:22;;;;;;;23.67;11.90;;;25.20;1.00;;;;;;4996017;28;20109;-77
2022/10/30 08:09:48;;;;;;;24.00;11.38;;;26.30;99.90;;;;;;4995900;28;20022;-77
2022/10/30 08:12:14;;;;;;;19.85;11.07;;;27.10;99.90;;;;;;4996362;28;20457;-77
2022/10/30 08:14:39;;;;;;;18.25;10.70;;;27.50;99.90;;;;;;4995895;28;20045;-77
2022/10/30 08:17:09;;;;;;;16.88;10.45;;;27.50;99.90;;;;;;4995964;28;20098;-77
2022/10/30 08:19:34;;;;;;;14.40;9.57;;;27.90;99.90;;;;;;4996468;28;20025;-77
2022/10/30 08:22:01;;;;;;;16.92;10.60;;;28.00;99.90;;;;;;4996165;28;20030;-77
2022/10/30 08:24:26;;;;;;;22.35;10.38;;;28.20;99.90;;;;;;4996182;28;20026;-77
2022/10/30 08:26:52;;;;;;;19.10;11.07;;;29.10;99.90;;;;;;4995894;28;20038;-77
2022/10/30 08:29:18;;;;;;;16.33;10.35;;;29.70;99.90;;;;;;4995785;28;20045;-77
2022/10/30 08:31:46;;;;;;;16.77;11.25;;;31.20;99.90;;;;;;4995780;28;20030;-77
2022/10/30 08:34:12;;;;;;;17.08;11.90;;;32.10;99.90;;;;;;4995857;28;20030;-78
2022/10/30 08:36:37;;;;;;;17.67;10.55;;;32.10;99.90;;;;;;4995827;28;20034;-78
2022/10/30 08:39:03;;;;;;;14.88;11.02;;;31.40;99.90;;;;;;5007323;28;20056;-78
2022/10/30 08:41:29;;;;;;;16.60;10.75;;;31.20;99.90;;;;;;5014950;28;20025;-77
2022/10/30 08:43:54;;;;;;;15.02;10.20;;;31.20;99.90;;;;;;5015317;28;20105;-78
2022/10/30 08:46:20;;;;;;;18.83;10.60;;;29.80;99.90;;;;;;5015105;28;20034;-77
2022/10/30 08:48:46;;;;;;;18.70;10.57;;;26.20;99.90;;;;;;5014921;28;20174;-78
2022/10/30 08:51:11;;;;;;;18.42;10.70;;;24.40;99.90;;;;;;5015094;28;20026;-78
2022/10/30 08:53:37;;;;;;;20.63;10.38;;;23.10;99.90;;;;;;5015152;28;20097;-77
2022/10/30 08:56:04;;;;;;;19.17;11.98;;;21.90;99.90;;;;;;5010403;28;20026;-78
2022/10/30 08:58:30;;;;;;;18.02;11.35;;;21.30;99.90;;;;;;4995041;28;20097;-78
2022/10/30 09:00:55;;;;;;;16.25;10.60;;;20.70;99.90;;;;;;4994297;28;20170;-77
2022/10/30 09:03:21;;;;;;;19.70;10.88;;;20.40;99.90;;;;;;4994211;28;20034;-78
2022/10/30 09:05:47;;;;;;;23.60;10.98;;;20.10;99.90;;;;;;4994376;28;20035;-78
2022/10/30 09:08:12;;;;;;;20.27;11.23;;;19.80;99.90;;;;;;4994636;28;20030;-78
2022/10/30 09:10:38;;;;;;;19.55;11.05;;;19.50;99.90;;;;;;4994618;28;20089;-78
2022/10/30 09:13:03;;;;;;;20.33;11.35;;;19.30;99.90;;;;;;4994677;28;20019;-78
2022/10/30 09:15:29;;;;;;;21.23;11.55;;;19.10;99.90;;;;;;4994860;28;20035;-78
2022/10/30 09:18:00;;;;;;;22.30;11.55;;;18.90;99.90;;;;;;4995100;28;20015;-78
2022/10/30 09:20:26;;;;;;;19.27;11.48;;;18.90;99.90;;;;;;4994883;28;20058;-78
2022/10/30 09:22:52;;;;;;;20.30;11.52;;;18.70;99.90;;;;;;4994952;28;20473;-78
2022/10/30 09:25:17;;;;;;;22.27;12.20;;;18.70;99.90;;;;;;4994828;28;20037;-78
2022/10/30 09:27:43;;;;;;;23.73;12.38;;;18.50;99.90;;;;;;4994440;28;20028;-79
2022/10/30 09:30:09;;;;;;;22.88;13.05;;;18.40;1.00;;;;;;4995419;28;20058;-79
2022/10/30 09:32:35;;;;;;;21.50;12.18;;;18.40;1.00;;;;;;4995388;28;20074;-78
2022/10/30 09:35:01;;;;;;;19.27;11.65;;;18.40;1.00;;;;;;5000933;28;20053;-79
2022/10/30 09:37:26;;;;;;;25.60;12.20;;;18.30;1.00;;;;;;5015283;28;20026;-78
2022/10/30 09:39:52;;;;;;;23.77;12.88;;;18.20;1.00;;;;;;4996690;28;20022;-78
2022/10/30 09:42:39;;;;;;;21.77;11.85;;;18.20;1.00;;;;;;4995615;28;20033;-78
2022/10/30 09:45:39;;;;;;;24.38;13.05;;;18.20;1.00;;;;;;4995603;28;20038;-79
2022/10/30 09:48:20;;;;;;;20.75;12.63;;;18.20;1.00;;;;;;5001503;28;20572;-79
2022/10/30 09:51:08;;;;;;;24.90;12.80;;;18.20;1.00;;;;;;5014101;28;20339;-79
2022/10/30 09:53:42;;;;;;;19.92;11.70;;;18.20;1.00;;;;;;5015113;28;20025;-78
2022/10/30 09:56:18;;;;;;;20.73;12.25;;;18.20;1.00;;;;;;5014619;28;20025;-78
2022/10/30 09:59:01;;;;;;;23.38;13.18;;;18.10;1.00;;;;;;5014562;28;20342;-78
2022/10/30 10:01:40;;;;;;;23.67;12.80;;;18.20;1.00;;;;;;5014680;28;20041;-78
2022/10/30 10:04:27;;;;;;;27.50;11.95;;;18.40;1.00;;;;;;5014693;28;20072;-78
2022/10/30 10:07:01;;;;;;;21.10;12.57;;;18.60;1.00;;;;;;5014417;28;20377;-79
2022/10/30 10:09:31;;;;;;;20.25;12.15;;;18.70;1.00;;;;;;5014596;28;20466;-79
2022/10/30 10:12:11;;;;;;;;;;;18.70;1.00;;;;;;5014878;28;20026;-78
2022/10/30 10:14:44;;;;;;;17.75;12.13;;;18.80;1.00;;;;;;5014538;28;19928;-79
2022/10/30 10:17:17;;;;;;;23.50;12.82;;;18.70;1.00;;;;;;5014903;28;20496;-79
2022/10/30 10:20:04;;;;;;;26.90;12.40;;;18.80;1.00;;;;;;5014713;28;20026;-79
2022/10/30 10:22:49;;;;;;;21.65;12.18;;;19.10;1.00;;;;;;5005934;28;20516;-78
2022/10/30 10:25:17;;;;;;;21.48;12.88;;;19.20;1.00;;;;;;4994629;28;20096;-79
2022/10/30 10:27:56;;;;;;;27.10;12.60;;;19.20;1.00;;;;;;4998037;28;20069;-78
2022/10/30 10:30:23;;;;;;;22.90;13.18;;;19.00;1.00;;;;;;4999302;28;20105;-79
2022/10/30 10:33:06;;;;;;;20.38;11.93;;;18.90;1.00;;;;;;4998974;28;20031;-79
2022/10/30 10:35:56;;;;;;;22.23;12.73;;;18.90;1.00;;;;;;5018643;28;20026;-78
2022/10/30 10:38:43;;;;;;;22.80;12.93;;;19.10;1.00;;;;;;5017671;28;20539;-79
2022/10/30 10:41:11;;;;;;;21.67;13.07;;;19.30;1.00;;;;;;5017857;28;20026;-79
2022/10/30 10:43:52;;;;;;;24.00;13.00;;;19.50;1.00;;;;;;5018221;28;20033;-79
2022/10/30 10:46:57;;;;;;;23.80;12.32;;;19.50;1.00;;;;;;5018395;28;20057;-79
2022/10/30 10:50:01;;;;;;;20.02;12.05;;;19.50;1.00;;;;;;5017264;28;20057;-78
2022/10/30 10:52:37;;;;;;;23.92;12.23;;;19.60;1.00;;;;;;4968032;28;20048;-79
2022/10/30 10:55:17;;;;;;;20.85;12.30;;;19.70;1.00;;;;;;5017501;28;20129;-79
2022/10/30 10:57:43;;;;;;;19.63;12.48;;;19.60;1.00;;;;;;5018107;28;20109;-79
2022/10/30 11:00:21;;;;;;;18.67;11.57;;;19.70;1.00;;;;;;5018001;28;20037;-79
2022/10/30 11:02:53;;;;;;;25.38;12.52;;;19.90;1.00;;;;;;5004924;28;20021;-79
2022/10/30 11:05:28;;;;;;;21.55;12.13;;;20.00;1.00;;;;;;5017245;28;20064;-79
2022/10/30 11:08:00;;;;;;;20.13;12.10;;;20.00;1.00;;;;;;5017403;28;20109;-79
2022/10/30 11:10:25;;;;;;;25.83;11.93;;;20.10;1.00;;;;;;5017431;28;20014;-78
2022/10/30 11:12:51;;;;;;;19.98;11.15;;;20.20;1.00;;;;;;5017163;28;20028;-78
2022/10/30 11:15:48;;;;;;;17.77;11.10;;;20.30;1.00;;;;;;5017452;28;20080;-79
2022/10/30 11:18:14;;;;;;;19.35;10.45;;;20.50;1.00;;;;;;5009804;28;20072;-79
2022/10/30 11:21:15;;;;;;;20.30;11.45;;;20.80;1.00;;;;;;5017367;28;20033;-78
2022/10/30 11:23:45;;;;;;;26.23;10.98;;;20.90;1.00;;;;;;5016890;28;20128;-79
2022/10/30 11:26:17;;;;;;;17.73;11.23;;;21.10;1.00;;;;;;5016792;28;20029;-79
2022/10/30 11:28:51;;;;;;;20.30;11.52;;;21.10;1.00;;;;;;5016939;28;20022;-79
2022/10/30 11:31:22;;;;;;;18.13;10.20;;;21.20;1.00;;;;;;5017123;28;20026;-79
2022/10/30 11:33:48;;;;;;;21.00;11.05;;;21.30;1.00;;;;;;5017120;28;20042;-79
2022/10/30 11:36:16;;;;;;;19.45;10.52;;;21.30;1.00;;;;;;5017116;28;20030;-78
2022/10/30 11:38:42;;;;;;;19.13;10.27;;;21.30;1.00;;;;;;5007469;28;20022;-79
2022/10/30 11:41:09;;;;;;;19.38;10.52;;;21.40;1.00;;;;;;5012347;28;20507;-79
2022/10/30 11:43:37;;;;;;;18.17;10.35;;;21.30;1.00;;;;;;5015422;28;20030;-79
2022/10/30 11:46:08;;;;;;;18.05;10.35;;;21.40;1.00;;;;;;5016838;28;20033;-78
2022/10/30 11:48:36;;;;;;;18.75;10.25;;;21.40;1.00;;;;;;5016339;28;20380;-79
2022/10/30 11:51:02;;;;;;;20.27;10.35;;;21.60;1.00;;;;;;5016710;28;20108;-79
2022/10/30 11:53:46;;;;;;;20.02;10.25;;;21.70;1.00;;;;;;5016301;28;20079;-79
2022/10/30 11:56:18;;;;;;;18.35;10.02;;;21.70;1.00;;;;;;5016349;28;20040;-79
2022/10/30 11:58:48;;;;;;;20.27;9.55;;;21.70;1.00;;;;;;5016410;28;20022;-79
2022/10/30 12:01:23;;;;;;;19.55;10.07;;;21.60;99.90;;;;;;5016589;28;20028;-79
2022/10/30 12:03:49;;;;;;;18.75;9.05;;;21.50;99.90;;;;;;5016336;28;20045;-79
2022/10/30 12:06:24;;;;;;;18.58;9.38;;;21.40;99.90;;;;;;5016463;28;20129;-79
2022/10/30 12:09:21;;;;;;;17.60;9.00;;;21.50;99.90;;;;;;5016079;28;20022;-79
2022/10/30 12:11:47;;;;;;;18.48;8.82;;;21.60;99.90;;;;;;5016514;28;20032;-79
2022/10/30 12:14:21;;;;;;;18.58;8.85;;;21.60;99.90;;;;;;5016260;28;20018;-79
2022/10/30 12:16:49;;;;;;;16.38;8.02;;;21.60;99.90;;;;;;5015978;28;20088;-78
2022/10/30 12:19:18;;;;;;;17.23;8.13;;;21.60;99.90;;;;;;5015877;28;20052;-79
2022/10/30 12:21:49;;;;;;;16.77;8.10;;;21.50;99.90;;;;;;5015987;28;20407;-79
2022/10/30 12:24:34;;;;;;;15.98;8.15;;;21.40;99.90;;;;;;5015557;28;20071;-79
2022/10/30 12:27:03;;;;;;;14.07;8.43;;;21.50;99.90;;;;;;5015514;28;20030;-79
2022/10/30 12:29:54;;;;;;;14.05;7.75;;;21.50;99.90;;;;;;5015900;28;20026;-79
2022/10/30 12:32:25;;;;;;;16.48;8.23;;;21.40;99.90;;;;;;4990666;28;20446;-79
2022/10/30 12:35:04;;;;;;;14.77;8.35;;;21.40;99.90;;;;;;4996356;28;20034;-79
2022/10/30 12:37:39;;;;;;;17.02;8.27;;;21.40;99.90;;;;;;4996312;28;20018;-78
2022/10/30 12:40:17;;;;;;;15.23;7.65;;;21.40;99.90;;;;;;5011098;28;20041;-79
2022/10/30 12:42:54;;;;;;;13.55;7.85;;;21.50;99.90;;;;;;4996332;28;20053;-79
2022/10/30 12:45:29;;;;;;;13.80;8.35;;;21.50;99.90;;;;;;4995687;28;20038;-79